KMGY/MGY METAR and TAF weather

Enter ICAO airport designator
Station Type Date Time Source
KMGY METAR 2020/01/20 09:53 UTC NOAA

KMGY 200953Z AUTO 31004KT 6SM HZ OVC018 M09/M12 A3044 RMK AO2 SNB38E48 SLP324 P0000 T10891117


Station Type Date Time Source
KMGY Decoded METAR 2020/01/20 09:53 UTC NOAA

DAYTON WRIGHT BROTHERS AIRPORT , OH, United States (KMGY) 39-36N 84-14W 289M
Jan 20, 2020 - 04:53 AM EST / 2020.01.20 0953 UTC
Wind: from the NW (310 degrees) at 5 MPH (4 KT):0
Visibility: 6 mile(s):0
Sky conditions: overcast
Weather: haze
Precipitation last hour: A trace
Temperature: 16.0 F (-8.9 C)
Windchill: 8 F (-13 C):1
Dew Point: 10.9 F (-11.7 C)
Relative Humidity: 80%
Pressure (altimeter): 30.44 in. Hg (1030 hPa)
ob: KMGY 200953Z AUTO 31004KT 6SM HZ OVC018 M09/M12 A3044 RMK AO2 SNB38E48 SLP324 P0000 T10891117
cycle: 10

Station Type Date Time Source
KMGY TAF UTC NOAA

Error!

Example: see airport list